Time;durP1;ratioP1;P1;durP2;ratioP2;P2;SDS_P1;SDS_P2;PMS_P1;PMS_P2;Temp;Humidity;BMP_temperature;BMP_pressure;BME280_temperature;BME280_humidity;BME280_pressure;Samples;Min_cycle;Max_cycle;Signal;HPM_P1;HPM_P2
2022/11/20 00:00:49;;;;;;;0.82;0.63;;;20.30;42.10;;;;;;6242520;28;20236;-52
2022/11/20 00:03:51;;;;;;;0.75;0.60;;;20.40;42.10;;;;;;6243831;28;20573;-53
2022/11/20 00:06:53;;;;;;;1.00;0.80;;;20.10;41.90;;;;;;6224037;28;20543;-54
2022/11/20 00:09:55;;;;;;;0.90;0.77;;;20.30;42.10;;;;;;6244472;28;20778;-49
2022/11/20 00:12:58;;;;;;;0.80;0.70;;;20.30;42.20;;;;;;6241129;28;20058;-54
2022/11/20 00:16:01;;;;;;;0.70;0.60;;;20.40;42.20;;;;;;6245705;28;20775;-53
2022/11/20 00:19:03;;;;;;;0.77;0.68;;;20.20;42.00;;;;;;6242367;28;20118;-54
2022/11/20 00:22:04;;;;;;;0.65;0.50;;;19.90;41.90;;;;;;6246422;28;20039;-56
2022/11/20 00:25:07;;;;;;;0.88;0.70;;;20.00;41.90;;;;;;6255577;28;20040;-54
2022/11/20 00:28:08;;;;;;;0.85;0.63;;;20.60;42.30;;;;;;6253883;28;21947;-56
2022/11/20 00:31:11;;;;;;;0.80;0.60;;;20.10;42.20;;;;;;6253131;28;20032;-55
2022/11/20 00:34:13;;;;;;;0.80;0.70;;;20.40;42.50;;;;;;6256616;28;20036;-56
2022/11/20 00:37:14;;;;;;;;;;;20.00;42.10;;;;;;6255213;28;20040;-56
2022/11/20 00:40:16;;;;;;;0.80;0.40;;;20.00;42.30;;;;;;6254349;28;19928;-56
2022/11/20 00:43:18;;;;;;;0.63;0.55;;;20.20;42.30;;;;;;6256137;28;20061;-55
2022/11/20 00:46:22;;;;;;;0.65;0.45;;;19.80;42.10;;;;;;6249439;28;20591;-55
2022/11/20 00:49:23;;;;;;;0.65;0.60;;;20.30;42.40;;;;;;6248513;28;20042;-55
2022/11/20 00:52:25;;;;;;;1.00;0.70;;;20.30;42.40;;;;;;6242904;28;20328;-51
2022/11/20 00:55:27;;;;;;;0.80;0.55;;;20.20;42.40;;;;;;6247947;28;20083;-51
2022/11/20 00:58:30;;;;;;;0.57;0.50;;;20.30;42.50;;;;;;6249858;28;20087;-53
2022/11/20 01:01:32;;;;;;;0.90;0.57;;;19.90;42.20;;;;;;6234205;28;20164;-55
2022/11/20 01:04:33;;;;;;;0.88;0.60;;;19.90;42.30;;;;;;6255267;28;20926;-54
2022/11/20 01:07:35;;;;;;;0.80;0.63;;;20.50;42.60;;;;;;6254085;28;20856;-52
2022/11/20 01:10:37;;;;;;;;;;;20.30;42.60;;;;;;6259267;28;20155;-55
2022/11/20 01:13:38;;;;;;;;;;;20.00;42.60;;;;;;6259056;28;19919;-55
2022/11/20 01:16:42;;;;;;;0.73;0.40;;;20.00;42.60;;;;;;6255624;28;19927;-56
2022/11/20 01:19:43;;;;;;;0.45;0.40;;;19.80;42.30;;;;;;6226004;28;20758;-54
2022/11/20 01:22:45;;;;;;;1.02;0.60;;;20.30;42.70;;;;;;6258664;28;20036;-54
2022/11/20 01:25:47;;;;;;;0.75;0.47;;;20.00;42.70;;;;;;6257291;28;20159;-55
2022/11/20 01:28:49;;;;;;;1.33;0.85;;;20.40;43.00;;;;;;6257625;28;20091;-49
2022/11/20 01:31:52;;;;;;;0.63;0.50;;;19.80;42.70;;;;;;6234168;28;20143;-55
2022/11/20 01:34:53;;;;;;;0.85;0.60;;;20.10;42.90;;;;;;6255917;28;20832;-53
2022/11/20 01:37:55;;;;;;;0.50;0.40;;;20.40;43.30;;;;;;6255706;28;20199;-55
2022/11/20 01:40:57;;;;;;;;;;;19.90;43.10;;;;;;6255649;28;20071;-54
2022/11/20 01:43:58;;;;;;;;;;;20.20;43.50;;;;;;6255411;28;20113;-53
2022/11/20 01:47:02;;;;;;;0.67;0.50;;;20.00;43.40;;;;;;6256004;28;20034;-55
2022/11/20 01:50:10;;;;;;;0.70;0.50;;;20.30;43.40;;;;;;6236392;28;20076;-55
2022/11/20 01:53:18;;;;;;;0.60;0.50;;;20.00;43.50;;;;;;6254719;28;20042;-56
2022/11/20 01:56:20;;;;;;;0.73;0.30;;;20.40;43.90;;;;;;6240230;28;20095;-53
2022/11/20 01:59:26;;;;;;;0.90;0.50;;;20.00;43.90;;;;;;6252354;28;20032;-54
2022/11/20 02:02:28;;;;;;;0.40;0.38;;;20.00;44.00;;;;;;6248396;28;20040;-55
2022/11/20 02:05:35;;;;;;;0.60;0.47;;;19.90;44.10;;;;;;6254030;28;20053;-55
2022/11/20 02:08:37;;;;;;;0.88;0.30;;;19.90;44.20;;;;;;6238061;28;20072;-55
2022/11/20 02:11:39;;;;;;;0.55;0.40;;;19.90;44.30;;;;;;6241160;28;20119;-54
2022/11/20 02:14:40;;;;;;;0.40;0.40;;;20.20;44.60;;;;;;6259372;28;20055;-54
2022/11/20 02:17:42;;;;;;;;;;;20.10;44.70;;;;;;6252573;28;20649;-53
2022/11/20 02:20:46;;;;;;;0.68;0.40;;;20.00;44.80;;;;;;6251144;28;20185;-50
2022/11/20 02:24:04;;;;;;;0.60;0.40;;;20.30;44.90;;;;;;6248813;28;20094;-52
2022/11/20 02:27:09;;;;;;;0.77;0.40;;;19.80;44.80;;;;;;6250048;28;20053;-55
2022/11/20 02:30:12;;;;;;;0.30;0.30;;;20.00;45.00;;;;;;6231210;28;20667;-52
2022/11/20 02:33:13;;;;;;;0.68;0.40;;;20.20;45.20;;;;;;6250228;28;20358;-52
2022/11/20 02:36:16;;;;;;;;;;;20.30;45.50;;;;;;6250471;28;20946;-55
2022/11/20 02:39:20;;;;;;;0.60;0.35;;;20.30;45.60;;;;;;6249489;28;20361;-53
2022/11/20 02:42:22;;;;;;;0.30;0.30;;;20.20;45.40;;;;;;6230219;28;20459;-52
2022/11/20 02:45:24;;;;;;;0.32;0.25;;;20.20;45.60;;;;;;6252187;28;20465;-53
2022/11/20 02:48:26;;;;;;;0.30;0.20;;;20.00;45.70;;;;;;6236650;28;20974;-53
2022/11/20 02:51:33;;;;;;;0.52;0.40;;;20.30;45.90;;;;;;6253867;28;20854;-51
2022/11/20 02:54:35;;;;;;;;;;;20.40;46.10;;;;;;6250840;28;20604;-50
2022/11/20 02:57:36;;;;;;;;;;;20.20;46.10;;;;;;6248325;28;20024;-53
2022/11/20 03:00:38;;;;;;;0.52;0.20;;;19.80;45.90;;;;;;6251565;28;20513;-52
2022/11/20 03:03:39;;;;;;;;;;;19.80;45.70;;;;;;6251590;28;20628;-53
2022/11/20 03:06:41;;;;;;;0.30;0.20;;;20.40;46.30;;;;;;6248374;28;20054;-54
2022/11/20 03:09:43;;;;;;;0.55;0.30;;;19.80;45.80;;;;;;6249228;28;20038;-52
2022/11/20 03:12:45;;;;;;;0.40;0.28;;;20.30;46.30;;;;;;6249512;28;20287;-53
2022/11/20 03:15:46;;;;;;;0.30;0.25;;;20.10;46.30;;;;;;6245985;28;20468;-53
2022/11/20 03:18:48;;;;;;;1.08;0.30;;;20.20;46.40;;;;;;6246815;28;20121;-53
2022/11/20 03:21:50;;;;;;;0.40;0.40;;;19.80;46.20;;;;;;6240858;28;20272;-51
2022/11/20 03:24:52;;;;;;;;;;;20.10;46.40;;;;;;6255100;28;20345;-51
2022/11/20 03:27:53;;;;;;;;;;;20.00;46.50;;;;;;6258849;28;20270;-51
2022/11/20 03:30:55;;;;;;;0.20;0.20;;;20.00;46.50;;;;;;6258110;28;20195;-53
2022/11/20 03:33:57;;;;;;;0.40;0.30;;;20.20;46.50;;;;;;6256255;28;20471;-53
2022/11/20 03:36:58;;;;;;;0.60;0.22;;;20.40;46.70;;;;;;6236490;28;20080;-53
2022/11/20 03:40:00;;;;;;;0.40;0.30;;;20.20;46.80;;;;;;6254443;28;20480;-50
2022/11/20 03:43:02;;;;;;;0.30;0.30;;;20.30;46.90;;;;;;6257343;28;20518;-54
2022/11/20 03:46:04;;;;;;;0.50;0.30;;;20.20;46.90;;;;;;6258111;28;20048;-54
2022/11/20 03:49:06;;;;;;;0.57;0.40;;;20.40;47.00;;;;;;6248782;28;20613;-53
2022/11/20 03:52:07;;;;;;;;;;;20.30;47.00;;;;;;6251512;28;20525;-53
2022/11/20 03:55:09;;;;;;;0.45;0.30;;;20.20;47.20;;;;;;6255853;28;19924;-52
2022/11/20 03:58:11;;;;;;;0.45;0.30;;;20.20;47.10;;;;;;6256547;28;20579;-55
2022/11/20 04:01:15;;;;;;;0.22;0.20;;;19.50;46.80;;;;;;6254675;28;20167;-54
2022/11/20 04:04:16;;;;;;;0.38;0.30;;;20.00;47.10;;;;;;6238009;28;20054;-54
2022/11/20 04:07:18;;;;;;;0.40;0.30;;;20.30;47.30;;;;;;6257771;28;20041;-51
2022/11/20 04:10:20;;;;;;;0.40;0.30;;;20.10;47.30;;;;;;6253560;28;20043;-50
2022/11/20 04:13:22;;;;;;;0.50;0.30;;;20.30;47.50;;;;;;6256173;28;20357;-52
2022/11/20 04:16:25;;;;;;;0.45;0.30;;;20.20;47.60;;;;;;6257491;28;20400;-51
2022/11/20 04:19:26;;;;;;;0.40;0.30;;;20.00;47.50;;;;;;6222988;28;20045;-53
2022/11/20 04:22:28;;;;;;;0.40;0.30;;;20.30;47.70;;;;;;6255176;28;20041;-53
2022/11/20 04:25:29;;;;;;;;;;;20.30;47.80;;;;;;6252113;28;20645;-53
2022/11/20 04:28:31;;;;;;;0.50;0.38;;;20.40;48.00;;;;;;6252544;28;21952;-55
2022/11/20 04:31:34;;;;;;;0.45;0.28;;;19.90;47.70;;;;;;6251418;28;20208;-49
2022/11/20 04:34:36;;;;;;;0.32;0.30;;;20.30;47.90;;;;;;6234229;28;20646;-49
2022/11/20 04:37:37;;;;;;;0.20;0.20;;;20.40;48.10;;;;;;6252160;28;20064;-53
2022/11/20 04:40:39;;;;;;;;;;;20.30;48.10;;;;;;6255600;28;20568;-53
2022/11/20 04:43:41;;;;;;;0.30;0.30;;;20.00;48.10;;;;;;6253762;28;20458;-53
2022/11/20 04:46:43;;;;;;;0.45;0.40;;;20.20;48.10;;;;;;6236027;28;20060;-52
2022/11/20 04:49:44;;;;;;;;;;;20.00;48.10;;;;;;6253227;28;20329;-53
2022/11/20 04:52:46;;;;;;;0.40;0.40;;;20.40;48.50;;;;;;6248950;28;19974;-51
2022/11/20 04:55:48;;;;;;;0.40;0.38;;;20.40;48.30;;;;;;6252496;28;20128;-52
2022/11/20 04:58:49;;;;;;;0.50;0.38;;;20.30;48.60;;;;;;6253956;28;20563;-52
2022/11/20 05:01:51;;;;;;;0.50;0.30;;;20.10;48.40;;;;;;6233506;28;20482;-51
2022/11/20 05:04:52;;;;;;;;;;;20.50;48.80;;;;;;6250544;28;20044;-53
2022/11/20 05:07:56;;;;;;;0.50;0.30;;;20.50;48.90;;;;;;6250297;28;20279;-53
2022/11/20 05:11:01;;;;;;;0.70;0.50;;;20.80;48.90;;;;;;6233185;28;20154;-53
2022/11/20 05:14:02;;;;;;;0.43;0.40;;;20.40;48.80;;;;;;6252584;28;20151;-52
2022/11/20 05:17:04;;;;;;;;;;;20.00;48.70;;;;;;6246101;28;20048;-52
2022/11/20 05:20:06;;;;;;;0.50;0.30;;;20.30;49.10;;;;;;6247309;28;20455;-53
2022/11/20 05:23:07;;;;;;;1.02;0.50;;;20.30;48.80;;;;;;6240742;28;20331;-53
2022/11/20 05:26:15;;;;;;;;;;;20.00;48.80;;;;;;6242016;28;20330;-52
2022/11/20 05:29:17;;;;;;;0.50;0.40;;;20.30;49.20;;;;;;6225247;28;20508;-54
2022/11/20 05:32:18;;;;;;;;;;;20.30;49.10;;;;;;6249047;28;20244;-50
2022/11/20 05:35:20;;;;;;;0.40;0.30;;;20.20;49.20;;;;;;6243181;28;19924;-55
2022/11/20 05:38:22;;;;;;;0.40;0.40;;;20.40;49.20;;;;;;6244809;28;20223;-51
2022/11/20 05:41:24;;;;;;;0.47;0.30;;;20.10;49.20;;;;;;6244761;28;20491;-54
2022/11/20 05:44:26;;;;;;;0.30;0.30;;;20.40;49.40;;;;;;6243757;28;20125;-52
2022/11/20 05:47:31;;;;;;;0.40;0.38;;;20.00;49.30;;;;;;6248861;28;20108;-52
2022/11/20 05:50:32;;;;;;;0.30;0.30;;;20.30;49.50;;;;;;6246639;28;20527;-53
2022/11/20 05:53:34;;;;;;;0.20;0.20;;;20.20;49.60;;;;;;6247763;28;20576;-52
2022/11/20 05:56:36;;;;;;;0.98;0.30;;;20.30;49.70;;;;;;6245011;28;20399;-53
2022/11/20 05:59:38;;;;;;;0.30;0.22;;;20.50;49.90;;;;;;6243771;28;20100;-52
2022/11/20 06:02:39;;;;;;;0.20;0.20;;;19.80;49.60;;;;;;6246673;28;20812;-54
2022/11/20 06:05:41;;;;;;;0.30;0.20;;;20.40;50.00;;;;;;6244002;28;20232;-52
2022/11/20 06:08:42;;;;;;;;;;;20.20;50.00;;;;;;6246360;28;20248;-52
2022/11/20 06:11:44;;;;;;;0.20;0.20;;;20.40;50.20;;;;;;6246341;28;20759;-51
2022/11/20 06:14:46;;;;;;;0.30;0.30;;;20.40;50.10;;;;;;6246777;28;20061;-52
2022/11/20 06:17:47;;;;;;;0.30;0.20;;;20.30;50.20;;;;;;6242053;28;20058;-52
2022/11/20 06:20:48;;;;;;;0.38;0.20;;;20.30;50.40;;;;;;6248545;28;20146;-52
2022/11/20 06:23:52;;;;;;;0.20;0.20;;;20.50;50.50;;;;;;6247583;28;20162;-49
2022/11/20 06:26:54;;;;;;;0.20;0.20;;;20.40;50.50;;;;;;6213775;28;20447;-54
2022/11/20 06:29:55;;;;;;;0.20;0.20;;;20.50;50.70;;;;;;6245461;28;20904;-53
2022/11/20 06:32:57;;;;;;;;;;;20.40;50.80;;;;;;6244782;28;20592;-51
2022/11/20 06:36:00;;;;;;;0.15;0.10;;;20.50;51.00;;;;;;6246207;28;20140;-54
2022/11/20 06:39:08;;;;;;;0.20;0.10;;;20.30;50.60;;;;;;6230712;28;20364;-52
2022/11/20 06:42:10;;;;;;;;;;;20.40;50.90;;;;;;6244832;28;20191;-53
2022/11/20 06:45:11;;;;;;;;;;;20.10;51.00;;;;;;6243012;28;19924;-52
2022/11/20 06:48:13;;;;;;;0.10;0.10;;;20.40;51.00;;;;;;6245877;28;19928;-52
2022/11/20 06:51:15;;;;;;;0.10;0.10;;;20.30;50.90;;;;;;6245002;28;20593;-50
2022/11/20 06:54:16;;;;;;;0.10;0.10;;;20.10;50.90;;;;;;6206914;28;20062;-51
2022/11/20 06:57:18;;;;;;;;;;;20.40;51.30;;;;;;6241470;28;20318;-54
2022/11/20 07:00:19;;;;;;;;;;;20.40;51.50;;;;;;6253305;28;20579;-53
2022/11/20 07:03:21;;;;;;;0.20;0.20;;;20.20;51.30;;;;;;6252571;28;19924;-51
2022/11/20 07:06:22;;;;;;;0.13;0.10;;;20.40;51.20;;;;;;6249147;28;20062;-52
2022/11/20 07:09:24;;;;;;;;;;;20.10;51.30;;;;;;6248049;28;20054;-54
2022/11/20 07:12:26;;;;;;;;;;;20.40;51.60;;;;;;6247223;28;20756;-52
2022/11/20 07:15:27;;;;;;;;;;;19.90;51.30;;;;;;6239062;28;19992;-52
2022/11/20 07:18:29;;;;;;;0.35;0.00;;;20.50;51.50;;;;;;6247559;28;20246;-51
2022/11/20 07:21:31;;;;;;;0.17;0.17;;;20.20;51.20;;;;;;6222840;28;20084;-53
2022/11/20 07:24:32;;;;;;;;;;;20.20;51.40;;;;;;6247772;28;21020;-52
2022/11/20 07:27:34;;;;;;;0.20;0.10;;;20.50;51.90;;;;;;6247938;28;20169;-50
2022/11/20 07:30:36;;;;;;;0.10;0.10;;;20.30;51.60;;;;;;6250064;28;20264;-52
2022/11/20 07:33:37;;;;;;;0.10;0.10;;;20.40;51.80;;;;;;6248769;28;20148;-53
2022/11/20 07:36:39;;;;;;;0.20;0.10;;;20.10;51.70;;;;;;6244926;28;20044;-52
2022/11/20 07:39:41;;;;;;;0.10;0.10;;;20.20;51.80;;;;;;6247601;28;20155;-54
2022/11/20 07:42:49;;;;;;;0.30;0.20;;;20.00;51.70;;;;;;6243266;28;20041;-48
2022/11/20 07:45:50;;;;;;;0.20;0.20;;;20.20;51.80;;;;;;6226130;28;20075;-52
2022/11/20 07:48:52;;;;;;;0.45;0.20;;;20.30;51.90;;;;;;6250122;28;20051;-51
2022/11/20 07:51:54;;;;;;;0.10;0.10;;;20.30;51.90;;;;;;6247513;28;20395;-53
2022/11/20 07:54:55;;;;;;;0.20;0.20;;;20.40;52.00;;;;;;6243000;28;20320;-54
2022/11/20 07:57:58;;;;;;;;;;;20.60;52.00;;;;;;6251155;28;20172;-53
2022/11/20 08:01:03;;;;;;;0.13;0.13;;;20.70;52.20;;;;;;6221853;28;20292;-53
2022/11/20 08:04:05;;;;;;;0.17;0.17;;;20.30;51.80;;;;;;6232945;28;20541;-53
2022/11/20 08:07:06;;;;;;;0.30;0.30;;;20.00;51.60;;;;;;6241261;28;20044;-55
2022/11/20 08:10:09;;;;;;;0.10;0.10;;;20.50;51.90;;;;;;6247888;28;20055;-52
2022/11/20 08:16:23;;;;;;;0.10;0.10;;;20.60;51.90;;;;;;6247660;28;20292;-54
2022/11/20 08:19:24;;;;;;;0.10;0.10;;;20.60;52.00;;;;;;6248137;28;20039;-49
2022/11/20 08:22:26;;;;;;;0.20;0.20;;;20.60;51.90;;;;;;6247144;28;20167;-52
2022/11/20 08:25:29;;;;;;;0.20;0.17;;;20.20;51.80;;;;;;6251395;28;20048;-54
2022/11/20 08:28:31;;;;;;;0.20;0.20;;;20.10;51.60;;;;;;6227178;28;20143;-53
2022/11/20 08:31:32;;;;;;;0.20;0.20;;;20.60;51.90;;;;;;6248563;28;20036;-51
2022/11/20 08:34:34;;;;;;;0.40;0.25;;;20.40;51.90;;;;;;6249937;28;20958;-51
2022/11/20 08:37:37;;;;;;;0.30;0.10;;;20.40;51.80;;;;;;6250355;28;20060;-51
2022/11/20 08:40:38;;;;;;;0.40;0.30;;;20.60;51.90;;;;;;6247016;28;20093;-53
2022/11/20 08:43:40;;;;;;;0.10;0.10;;;20.20;51.70;;;;;;6245265;28;20047;-54
2022/11/20 08:46:43;;;;;;;0.30;0.30;;;20.40;51.90;;;;;;6244696;28;20538;-53
2022/11/20 08:49:45;;;;;;;0.20;0.20;;;20.50;51.90;;;;;;6244819;28;20048;-53
2022/11/20 08:52:47;;;;;;;0.25;0.25;;;20.50;52.00;;;;;;6244270;28;20051;-53
2022/11/20 08:55:48;;;;;;;0.43;0.20;;;20.20;51.80;;;;;;6242215;28;20123;-50
2022/11/20 08:58:51;;;;;;;;;;;20.40;51.90;;;;;;6243273;28;20603;-53
2022/11/20 09:02:12;;;;;;;0.20;0.13;;;20.60;52.20;;;;;;6232629;28;20439;-52
2022/11/20 09:05:14;;;;;;;;;;;20.30;51.90;;;;;;6245893;28;20070;-52
2022/11/20 09:08:15;;;;;;;0.65;0.30;;;20.40;52.10;;;;;;6239784;28;20035;-53
2022/11/20 09:11:17;;;;;;;0.20;0.20;;;20.20;51.90;;;;;;6247976;28;20075;-50
2022/11/20 09:14:19;;;;;;;;;;;20.60;52.10;;;;;;6245803;28;20041;-53
2022/11/20 09:17:20;;;;;;;;;;;20.70;52.30;;;;;;6233380;28;20225;-53
2022/11/20 09:20:22;;;;;;;0.15;0.10;;;20.50;52.20;;;;;;6241121;28;20167;-52
2022/11/20 09:23:24;;;;;;;0.70;0.20;;;20.50;52.00;;;;;;6224432;28;20081;-54
2022/11/20 09:26:25;;;;;;;;;;;20.20;51.90;;;;;;6242421;28;21197;-51
2022/11/20 09:29:27;;;;;;;0.47;0.30;;;20.70;52.40;;;;;;6242500;28;19925;-53
2022/11/20 09:32:29;;;;;;;0.38;0.20;;;20.30;52.00;;;;;;6238212;28;20513;-54
2022/11/20 09:35:30;;;;;;;;;;;20.50;52.20;;;;;;6221178;28;20376;-51
2022/11/20 09:38:31;;;;;;;1.05;0.43;;;20.70;52.40;;;;;;6240314;28;19938;-54
2022/11/20 09:41:50;;;;;;;0.30;0.20;;;20.80;52.30;;;;;;6238865;28;20537;-50
2022/11/20 09:45:07;;;;;;;0.45;0.30;;;20.80;52.30;;;;;;6243285;28;20351;-52
2022/11/20 09:48:20;;;;;;;0.55;0.30;;;20.30;52.10;;;;;;6244259;28;20443;-52
2022/11/20 09:51:34;;;;;;;0.75;0.20;;;20.40;52.00;;;;;;6240239;28;20109;-54
2022/11/20 09:54:39;;;;;;;0.60;0.43;;;20.60;52.10;;;;;;6245337;28;20493;-51
2022/11/20 09:57:43;;;;;;;1.27;0.57;;;20.80;52.20;;;;;;6240799;28;20060;-50
2022/11/20 10:00:47;;;;;;;0.60;0.47;;;20.50;51.90;;;;;;6222843;28;20143;-50
2022/11/20 10:03:56;;;;;;;0.90;0.40;;;20.20;51.70;;;;;;6218610;28;20048;-52
2022/11/20 10:07:06;;;;;;;0.90;0.47;;;20.30;51.70;;;;;;6178320;28;20339;-51
2022/11/20 10:10:34;;;;;;;0.93;0.63;;;20.70;51.90;;;;;;6224644;28;20347;-52
2022/11/20 10:13:53;;;;;;;1.60;0.43;;;20.40;51.70;;;;;;6243884;28;20511;-50
2022/11/20 10:17:03;;;;;;;1.40;0.47;;;20.40;64.80;;;;;;6240772;28;20048;-53
2022/11/20 10:20:17;;;;;;;1.27;0.40;;;20.70;51.70;;;;;;6238351;28;20044;-50
2022/11/20 10:23:35;;;;;;;0.50;0.30;;;20.70;51.70;;;;;;6243713;28;20344;-51
2022/11/20 10:26:43;;;;;;;1.25;0.68;;;20.70;51.60;;;;;;6241225;28;20368;-51
2022/11/20 10:29:51;;;;;;;1.15;0.55;;;20.70;51.60;;;;;;6242790;28;20909;-52
2022/11/20 10:32:58;;;;;;;1.00;0.55;;;20.60;51.40;;;;;;6238995;28;20509;-52
2022/11/20 10:36:08;;;;;;;0.70;0.40;;;20.90;51.50;;;;;;6224434;28;20559;-51
2022/11/20 10:39:18;;;;;;;1.33;0.60;;;20.70;51.40;;;;;;6240923;28;20115;-51
2022/11/20 10:42:29;;;;;;;1.48;0.40;;;20.80;51.40;;;;;;6230551;28;20071;-50
2022/11/20 10:45:39;;;;;;;0.80;0.43;;;20.70;51.20;;;;;;6244111;28;20513;-55
2022/11/20 10:48:44;;;;;;;0.65;0.30;;;21.00;51.40;;;;;;6241775;28;20476;-50
2022/11/20 10:51:57;;;;;;;1.63;0.65;;;20.50;51.10;;;;;;6238608;28;20551;-51
2022/11/20 10:55:06;;;;;;;1.60;0.50;;;20.60;51.10;;;;;;6221079;28;20281;-52
2022/11/20 10:58:12;;;;;;;1.73;0.60;;;20.70;51.10;;;;;;6221666;28;20439;-52
2022/11/20 11:01:16;;;;;;;0.80;0.50;;;20.70;51.10;;;;;;6240973;28;20036;-50
2022/11/20 11:04:30;;;;;;;0.95;0.50;;;20.30;51.00;;;;;;6225605;28;20473;-52
2022/11/20 11:07:37;;;;;;;1.95;0.50;;;20.40;50.90;;;;;;6240895;28;20299;-53
2022/11/20 11:10:44;;;;;;;1.35;0.60;;;20.50;50.90;;;;;;6225704;28;20044;-50
2022/11/20 11:13:46;;;;;;;1.25;0.60;;;20.40;50.80;;;;;;6225413;28;20900;-54
2022/11/20 11:16:52;;;;;;;1.20;0.60;;;20.40;50.90;;;;;;6242458;28;20044;-54
2022/11/20 11:20:04;;;;;;;1.08;0.50;;;20.80;51.00;;;;;;6209370;28;20070;-51
2022/11/20 11:23:22;;;;;;;1.10;0.47;;;20.40;50.80;;;;;;6202174;28;20063;-54
2022/11/20 11:26:25;;;;;;;0.70;0.32;;;20.50;50.70;;;;;;6240585;28;20683;-54
2022/11/20 11:29:29;;;;;;;1.40;0.65;;;20.70;50.90;;;;;;6239494;28;20193;-53
2022/11/20 11:32:30;;;;;;;1.08;0.60;;;20.50;50.80;;;;;;6238598;28;20464;-53
2022/11/20 11:35:33;;;;;;;0.60;0.40;;;20.90;51.00;;;;;;6241084;28;20428;-53
2022/11/20 11:38:37;;;;;;;1.65;0.43;;;20.80;50.90;;;;;;6234309;28;20109;-49
2022/11/20 11:41:40;;;;;;;1.17;0.50;;;20.90;50.90;;;;;;6227619;28;20128;-54
2022/11/20 11:48:03;;;;;;;0.65;0.40;;;20.80;50.60;;;;;;6247512;28;20488;-50
2022/11/20 11:51:09;;;;;;;1.10;0.50;;;20.80;50.60;;;;;;6245124;28;20051;-50
2022/11/20 11:54:16;;;;;;;0.70;0.50;;;20.40;50.30;;;;;;6245213;28;20048;-52
2022/11/20 11:57:23;;;;;;;0.73;0.43;;;20.40;50.20;;;;;;6244862;28;20418;-51
2022/11/20 12:00:25;;;;;;;0.50;0.30;;;21.10;50.50;;;;;;6242269;28;20513;-52
2022/11/20 12:03:34;;;;;;;0.52;0.30;;;21.00;50.40;;;;;;6243171;28;20039;-52
2022/11/20 12:06:39;;;;;;;0.70;0.40;;;20.90;50.20;;;;;;6248179;28;20647;-51
2022/11/20 12:09:48;;;;;;;1.35;0.60;;;20.70;49.90;;;;;;6249997;28;20067;-49
2022/11/20 12:12:55;;;;;;;0.82;0.40;;;20.70;49.80;;;;;;6245159;28;21217;-54
2022/11/20 12:15:56;;;;;;;0.60;0.30;;;20.90;49.80;;;;;;6232074;28;20058;-54
2022/11/20 12:18:58;;;;;;;;;;;20.60;49.60;;;;;;6240650;28;20076;-51
2022/11/20 12:22:06;;;;;;;0.47;0.20;;;21.00;49.90;;;;;;6246303;28;20518;-50
2022/11/20 12:25:14;;;;;;;0.30;0.25;;;20.80;49.70;;;;;;6247574;28;20805;-54
2022/11/20 12:28:33;;;;;;;0.75;0.30;;;20.90;49.50;;;;;;6246563;28;20393;-52
2022/11/20 12:31:56;;;;;;;0.45;0.30;;;20.60;49.00;;;;;;6247145;28;20051;-52
2022/11/20 12:35:11;;;;;;;0.63;0.32;;;21.00;49.00;;;;;;6247301;28;20052;-49
2022/11/20 12:38:35;;;;;;;0.73;0.30;;;21.00;48.80;;;;;;6243451;28;20048;-50
2022/11/20 12:45:18;;;;;;;0.57;0.30;;;20.70;48.30;;;;;;6245482;28;20334;-49
2022/11/20 12:48:31;;;;;;;0.35;0.20;;;21.00;48.30;;;;;;6248461;28;20404;-53
2022/11/20 12:51:47;;;;;;;0.70;0.40;;;20.50;47.90;;;;;;6240007;28;20839;-51
2022/11/20 12:55:07;;;;;;;1.50;0.50;;;20.90;48.00;;;;;;6246530;28;20169;-53
2022/11/20 12:58:20;;;;;;;0.90;0.40;;;21.10;48.20;;;;;;6247148;28;20459;-53
2022/11/20 13:04:55;;;;;;;1.38;0.45;;;21.00;47.90;;;;;;6228749;28;20044;-51
2022/11/20 13:08:00;;;;;;;0.60;0.32;;;21.00;47.70;;;;;;6227665;28;20044;-53
2022/11/20 13:11:12;;;;;;;0.70;0.40;;;20.90;47.70;;;;;;6239589;28;20597;-53
2022/11/20 13:14:27;;;;;;;0.85;0.40;;;20.70;47.50;;;;;;6219062;28;20158;-55
2022/11/20 13:17:36;;;;;;;1.52;0.50;;;21.10;47.80;;;;;;6241540;28;20043;-50
2022/11/20 13:20:43;;;;;;;1.30;0.55;;;20.60;47.40;;;;;;6232942;28;20586;-50
2022/11/20 13:23:44;;;;;;;0.80;0.22;;;21.00;47.60;;;;;;6208576;28;20367;-51
2022/11/20 13:26:46;;;;;;;;;;;20.70;47.40;;;;;;6223489;28;20044;-49
2022/11/20 13:30:01;;;;;;;0.73;0.40;;;20.80;47.60;;;;;;6232398;28;20336;-52
2022/11/20 13:33:07;;;;;;;1.08;0.40;;;20.80;47.30;;;;;;6228048;28;20048;-54
2022/11/20 13:36:22;;;;;;;1.33;0.40;;;21.00;47.30;;;;;;6229455;28;20082;-52
2022/11/20 13:39:25;;;;;;;0.80;0.45;;;20.90;47.10;;;;;;6215854;28;20501;-51
2022/11/20 13:42:28;;;;;;;0.85;0.35;;;21.00;47.10;;;;;;6231495;28;20500;-53
2022/11/20 13:45:32;;;;;;;0.75;0.40;;;20.60;46.80;;;;;;6229959;28;20632;-51
2022/11/20 13:48:40;;;;;;;0.93;0.50;;;20.70;46.60;;;;;;6226519;28;20268;-51
2022/11/20 13:51:45;;;;;;;0.65;0.20;;;21.00;46.60;;;;;;6204462;28;20056;-54
2022/11/20 13:55:02;;;;;;;0.43;0.30;;;21.20;46.60;;;;;;6224765;28;20051;-50
2022/11/20 13:58:19;;;;;;;0.40;0.30;;;20.90;46.20;;;;;;6215764;28;20132;-50
2022/11/20 14:01:23;;;;;;;1.85;0.50;;;21.10;46.10;;;;;;6222247;28;20044;-50
2022/11/20 14:04:29;;;;;;;0.93;0.30;;;21.00;46.00;;;;;;6209446;28;20055;-51
2022/11/20 14:07:37;;;;;;;1.00;0.40;;;21.00;45.80;;;;;;6213198;28;20816;-52
2022/11/20 14:10:39;;;;;;;0.50;0.30;;;21.00;45.60;;;;;;6226211;28;20488;-50
2022/11/20 14:13:58;;;;;;;0.45;0.40;;;20.90;45.60;;;;;;6232630;28;20036;-51
2022/11/20 14:17:15;;;;;;;0.85;0.45;;;21.00;58.50;;;;;;6227172;28;20210;-54
2022/11/20 14:20:22;;;;;;;0.95;0.32;;;20.70;45.30;;;;;;6198399;28;20055;-50
2022/11/20 14:23:26;;;;;;;0.90;0.70;;;21.00;45.40;;;;;;6229674;28;20566;-54
2022/11/20 14:26:31;;;;;;;0.57;0.40;;;20.70;45.20;;;;;;6219583;28;20139;-52
2022/11/20 14:29:36;;;;;;;0.70;0.40;;;20.70;45.30;;;;;;6227400;28;20363;-52
2022/11/20 14:32:38;;;;;;;0.50;0.30;;;20.90;45.30;;;;;;6219313;28;20098;-52
2022/11/20 14:35:45;;;;;;;0.45;0.40;;;21.10;45.40;;;;;;6213231;28;20051;-50
2022/11/20 14:38:47;;;;;;;0.63;0.40;;;20.80;45.20;;;;;;6224437;28;20596;-53
2022/11/20 14:41:52;;;;;;;0.98;0.32;;;21.10;45.30;;;;;;6218708;28;20051;-54
2022/11/20 14:44:56;;;;;;;1.23;0.45;;;21.20;45.40;;;;;;6199396;28;20510;-51
2022/11/20 14:48:00;;;;;;;1.02;0.40;;;20.80;45.10;;;;;;6194085;28;20559;-53
2022/11/20 14:51:01;;;;;;;1.05;0.40;;;20.70;45.10;;;;;;6211063;28;20104;-53
2022/11/20 14:54:10;;;;;;;;;;;21.10;45.30;;;;;;6224439;28;20205;-52
2022/11/20 14:57:22;;;;;;;0.88;0.40;;;20.90;45.30;;;;;;6181931;28;20406;-52
2022/11/20 15:00:24;;;;;;;0.70;0.50;;;21.00;45.30;;;;;;6202910;28;20444;-53
2022/11/20 15:03:32;;;;;;;0.88;0.50;;;21.10;45.50;;;;;;6221293;28;20695;-53
2022/11/20 15:06:34;;;;;;;1.00;0.47;;;20.80;45.30;;;;;;6225309;28;20556;-52
2022/11/20 15:09:36;;;;;;;0.95;0.45;;;21.20;45.60;;;;;;6219103;28;20838;-53
2022/11/20 15:12:40;;;;;;;0.90;0.30;;;20.70;45.40;;;;;;6215980;28;20075;-54
2022/11/20 15:15:46;;;;;;;1.02;0.50;;;20.70;45.90;;;;;;6185938;28;20412;-53
2022/11/20 15:18:48;;;;;;;0.77;0.50;;;20.80;45.40;;;;;;6207700;28;20036;-52
2022/11/20 15:21:50;;;;;;;0.32;0.20;;;21.00;45.50;;;;;;6233215;28;20147;-54
2022/11/20 15:24:51;;;;;;;;;;;20.50;45.30;;;;;;6227926;28;21670;-54
2022/11/20 15:27:56;;;;;;;0.77;0.30;;;21.10;45.70;;;;;;6229970;28;20863;-52
2022/11/20 15:30:57;;;;;;;0.47;0.28;;;20.90;45.60;;;;;;6200872;28;20565;-50
2022/11/20 15:33:59;;;;;;;0.80;0.40;;;20.80;45.50;;;;;;6224698;28;20048;-52
2022/11/20 15:37:01;;;;;;;0.73;0.35;;;21.00;45.70;;;;;;6221008;28;20627;-53
2022/11/20 15:40:03;;;;;;;0.52;0.28;;;20.70;45.50;;;;;;6215773;28;20044;-51
2022/11/20 15:43:07;;;;;;;0.75;0.30;;;20.80;45.60;;;;;;6197530;28;20752;-52
2022/11/20 15:46:16;;;;;;;0.90;0.40;;;21.00;45.70;;;;;;6225383;28;20040;-51
2022/11/20 15:49:18;;;;;;;1.15;0.30;;;20.60;45.50;;;;;;6218406;28;20835;-51
2022/11/20 15:52:20;;;;;;;1.00;0.40;;;21.10;45.90;;;;;;6219546;28;21963;-52
2022/11/20 15:55:21;;;;;;;0.63;0.30;;;20.60;45.70;;;;;;6222399;28;20067;-50
2022/11/20 15:58:24;;;;;;;;;;;20.80;45.90;;;;;;6227650;28;20052;-54
2022/11/20 16:01:25;;;;;;;1.02;0.43;;;20.80;45.90;;;;;;6220996;28;19923;-52
2022/11/20 16:04:27;;;;;;;;;;;20.70;45.90;;;;;;6226245;28;20071;-52
2022/11/20 16:07:29;;;;;;;1.00;0.40;;;20.40;45.90;;;;;;6224044;28;21255;-53
2022/11/20 16:10:30;;;;;;;;;;;20.90;46.20;;;;;;6210946;28;20117;-53
2022/11/20 16:16:51;;;;;;;0.95;0.40;;;20.90;46.20;;;;;;6220625;28;20479;-54
2022/11/20 16:19:53;;;;;;;1.13;0.40;;;20.90;46.30;;;;;;6221941;28;20268;-53
2022/11/20 16:22:54;;;;;;;1.25;0.50;;;20.90;46.40;;;;;;6227016;28;20036;-51
2022/11/20 16:25:56;;;;;;;;;;;20.60;46.30;;;;;;6222822;28;20626;-51
2022/11/20 16:28:59;;;;;;;0.95;0.38;;;21.10;46.70;;;;;;6219210;28;20615;-53